createdAt,value
2022-12-08T00:02:22.084Z,100091.79
2022-12-08T00:05:07.479Z,100089.63
2022-12-08T00:07:52.786Z,100086.06
2022-12-08T00:10:46.724Z,100086.94
2022-12-08T00:13:05.619Z,100081.08
2022-12-08T00:15:32.028Z,100079.62
2022-12-08T00:17:58.398Z,100080.15
2022-12-08T00:20:24.785Z,100077.33
2022-12-08T00:22:51.173Z,100071.33
2022-12-08T00:25:17.570Z,100067.89
2022-12-08T00:27:44.017Z,100068.48
2022-12-08T00:30:11.019Z,100070.73
2022-12-08T00:32:38.141Z,100065.28
2022-12-08T00:35:05.177Z,100062.93
2022-12-08T00:37:31.831Z,100065.26
2022-12-08T00:39:58.212Z,100061.36
2022-12-08T00:42:24.607Z,100058.43
2022-12-08T00:44:51.126Z,100058.52
2022-12-08T00:47:22.129Z,100055.78
2022-12-08T00:49:51.012Z,100053.98
2022-12-08T00:52:17.440Z,100055.10
2022-12-08T00:54:43.848Z,100050.23
2022-12-08T00:57:10.278Z,100050.48
2022-12-08T00:59:36.693Z,100048.48
2022-12-08T01:02:03.195Z,100049.02
2022-12-08T01:04:29.593Z,100052.67
2022-12-08T01:06:56.297Z,100047.02
2022-12-08T01:09:22.982Z,100043.56
2022-12-08T01:11:49.491Z,100045.90
2022-12-08T01:14:15.972Z,100044.38
2022-12-08T01:16:43.518Z,100047.10
2022-12-08T01:19:13.218Z,100041.23
2022-12-08T01:21:40.953Z,100040.77
2022-12-08T01:24:10.629Z,100037.67
2022-12-08T01:26:37.037Z,100037.54
2022-12-08T01:29:03.410Z,100040.48
2022-12-08T01:31:29.821Z,100040.94
2022-12-08T01:33:56.360Z,100039.26
2022-12-08T01:36:25.806Z,100042.04
2022-12-08T01:38:53.513Z,100039.20
2022-12-08T01:41:22.911Z,100036.81
2022-12-08T01:43:57.033Z,100040.73
2022-12-08T01:46:24.578Z,100037.67
2022-12-08T01:48:56.570Z,100035.64
2022-12-08T01:51:23.116Z,100033.58
2022-12-08T01:53:49.964Z,100031.64
2022-12-08T01:56:24.114Z,100030.46
2022-12-08T01:58:52.975Z,100025.61
2022-12-08T02:01:19.434Z,100023.00
2022-12-08T02:04:04.896Z,100021.76
2022-12-08T02:06:36.205Z,100017.70
2022-12-08T02:09:03.470Z,100013.61
2022-12-08T02:11:29.948Z,100013.75
2022-12-08T02:13:58.747Z,100008.55
2022-12-08T02:16:40.755Z,100005.86
2022-12-08T02:19:32.237Z,100006.98
2022-12-08T02:22:00.878Z,100003.92
2022-12-08T02:24:36.189Z,100005.11
2022-12-08T02:27:29.684Z,99999.87
2022-12-08T02:30:05.260Z,99997.42
2022-12-08T02:33:06.112Z,99988.95
2022-12-08T02:35:57.776Z,99989.98
2022-12-08T02:38:38.277Z,99982.77
2022-12-08T02:41:26.092Z,99987.53
2022-12-08T02:44:12.615Z,99988.80
2022-12-08T02:46:52.755Z,99988.90
2022-12-08T02:49:19.125Z,99988.94
2022-12-08T02:51:45.608Z,99982.88
2022-12-08T02:54:13.037Z,99981.52
2022-12-08T02:57:05.381Z,99983.69
2022-12-08T02:59:40.895Z,99987.95
2022-12-08T03:02:10.117Z,99985.09
2022-12-08T03:05:21.890Z,99983.04
2022-12-08T03:08:12.214Z,99984.20
2022-12-08T03:11:05.007Z,99981.52
2022-12-08T03:13:45.135Z,99980.05
2022-12-08T03:16:15.818Z,99975.20
2022-12-08T03:18:47.989Z,99973.21
2022-12-08T03:21:17.481Z,99967.30
2022-12-08T03:23:46.496Z,99957.95
2022-12-08T03:26:24.886Z,99954.70
2022-12-08T03:28:51.458Z,99954.86
2022-12-08T03:31:19.749Z,99953.02
2022-12-08T03:33:51.635Z,99949.58
2022-12-08T03:36:19.492Z,99947.59
2022-12-08T03:38:49.999Z,99942.30
2022-12-08T03:41:19.424Z,99941.27
2022-12-08T03:43:52.181Z,99936.48
2022-12-08T03:48:46.263Z,99933.57
2022-12-08T03:51:12.934Z,99930.69
2022-12-08T03:53:39.473Z,99927.58
2022-12-08T03:56:26.110Z,99926.92
2022-12-08T03:58:54.218Z,99923.13
2022-12-08T04:01:21.585Z,99924.28
2022-12-08T04:03:48.513Z,99921.93
2022-12-08T04:06:15.599Z,99916.19
2022-12-08T04:08:42.387Z,99915.95
2022-12-08T04:11:09.281Z,99912.36
2022-12-08T04:13:38.061Z,99908.83
2022-12-08T04:16:05.583Z,99907.56
2022-12-08T04:18:33.030Z,99908.27
2022-12-08T04:20:59.484Z,99909.63
2022-12-08T04:23:25.957Z,99907.93
2022-12-08T04:25:53.363Z,99905.50
2022-12-08T04:28:20.057Z,99901.89
2022-12-08T04:30:48.481Z,99900.42
2022-12-08T04:33:14.918Z,99901.79
2022-12-08T04:35:41.455Z,99900.50
2022-12-08T04:38:07.830Z,99900.99
2022-12-08T04:40:34.217Z,99897.95
2022-12-08T04:43:00.603Z,99894.38
2022-12-08T04:45:26.972Z,99892.65
2022-12-08T04:47:53.354Z,99891.83
2022-12-08T04:50:19.841Z,99890.95
2022-12-08T04:52:46.250Z,99886.79
2022-12-08T04:55:12.643Z,99888.48
2022-12-08T04:57:39.112Z,99887.25
2022-12-08T05:00:06.528Z,99884.11
2022-12-08T05:02:33.201Z,99886.80
2022-12-08T05:05:00.051Z,99888.68
2022-12-08T05:07:26.677Z,99880.63
2022-12-08T05:09:53.168Z,99875.79
2022-12-08T05:12:19.594Z,99873.96
2022-12-08T05:14:48.291Z,99872.52
2022-12-08T05:17:16.651Z,99871.66
2022-12-08T05:19:43.109Z,99871.11
2022-12-08T05:22:09.553Z,99869.66
2022-12-08T05:24:36.073Z,99871.64
2022-12-08T05:27:02.549Z,99872.23
2022-12-08T05:29:29.022Z,99868.73
2022-12-08T05:31:55.578Z,99864.50
2022-12-08T05:34:22.091Z,99861.34
2022-12-08T05:36:48.501Z,99859.80
2022-12-08T05:39:15.531Z,99862.21
2022-12-08T05:41:42.106Z,99853.21
2022-12-08T05:44:08.653Z,99854.10
2022-12-08T05:46:35.287Z,99847.55
2022-12-08T05:49:03.034Z,99850.77
2022-12-08T05:51:29.707Z,99847.49
2022-12-08T05:53:56.773Z,99854.11
2022-12-08T05:56:23.477Z,99851.61
2022-12-08T05:58:50.793Z,99848.39
2022-12-08T06:01:26.183Z,99847.60
2022-12-08T06:03:52.723Z,99850.02
2022-12-08T06:06:19.954Z,99847.46
2022-12-08T06:08:48.674Z,99846.91
2022-12-08T06:11:22.801Z,99851.33
2022-12-08T06:13:50.010Z,99846.04
2022-12-08T06:16:16.601Z,99852.10
2022-12-08T06:18:43.149Z,99842.17
2022-12-08T06:21:12.448Z,99846.40
2022-12-08T06:23:39.687Z,99841.95
2022-12-08T06:26:14.402Z,99839.86
2022-12-08T06:28:42.308Z,99839.46
2022-12-08T06:31:16.270Z,99840.23
2022-12-08T06:33:43.079Z,99843.96
2022-12-08T06:36:11.850Z,99840.38
2022-12-08T06:38:43.146Z,99836.20
2022-12-08T06:41:11.277Z,99837.48
2022-12-08T06:43:37.809Z,99843.70
2022-12-08T06:46:07.775Z,99841.45
2022-12-08T06:48:34.582Z,99842.52
2022-12-08T06:51:09.154Z,99842.03
2022-12-08T06:53:35.742Z,99844.41
2022-12-08T06:56:02.681Z,99848.42
2022-12-08T06:58:29.350Z,99848.23
2022-12-08T07:00:55.870Z,99854.02
2022-12-08T07:03:22.350Z,99857.41
2022-12-08T07:05:49.061Z,99857.96
2022-12-08T07:08:15.707Z,99857.64
2022-12-08T07:10:42.186Z,99859.61
2022-12-08T07:13:08.646Z,99862.72
2022-12-08T07:15:35.027Z,99858.45
2022-12-08T07:18:01.396Z,99857.90
2022-12-08T07:20:28.103Z,99857.39
2022-12-08T07:22:54.701Z,99861.98
2022-12-08T07:25:21.650Z,99865.77
2022-12-08T07:27:48.135Z,99872.42
2022-12-08T07:30:15.050Z,99870.10
2022-12-08T07:32:41.836Z,99868.19
2022-12-08T07:35:08.844Z,99866.77
2022-12-08T07:37:36.418Z,99870.98
2022-12-08T07:40:04.636Z,99870.48
2022-12-08T07:42:31.322Z,99871.48
2022-12-08T07:44:57.718Z,99868.36
2022-12-08T07:47:24.075Z,99868.16
2022-12-08T07:49:50.444Z,99867.77
2022-12-08T07:52:16.883Z,99866.06
2022-12-08T07:54:43.345Z,99868.48
2022-12-08T07:57:09.802Z,99865.44
2022-12-08T07:59:36.223Z,99865.29
2022-12-08T08:02:22.689Z,99864.14
2022-12-08T08:04:52.203Z,99868.40
2022-12-08T08:07:18.635Z,99864.67
2022-12-08T08:09:45.774Z,99868.22
2022-12-08T08:15:00.716Z,99873.48
2022-12-08T08:17:27.902Z,99872.41
2022-12-08T08:19:54.332Z,99875.11
2022-12-08T08:22:20.772Z,99871.17
2022-12-08T08:24:47.181Z,99868.89
2022-12-08T08:27:13.953Z,99874.14
2022-12-08T08:29:40.361Z,99874.98
2022-12-08T08:32:06.720Z,99875.92
2022-12-08T08:34:33.123Z,99881.17
2022-12-08T08:36:59.659Z,99877.39
2022-12-08T08:39:26.206Z,99883.81
2022-12-08T08:41:52.785Z,99879.34
2022-12-08T08:44:19.228Z,99881.94
2022-12-08T08:46:45.703Z,99879.96
2022-12-08T08:49:12.121Z,99882.23
2022-12-08T08:51:38.652Z,99885.05
2022-12-08T08:54:05.120Z,99889.17
2022-12-08T08:56:31.690Z,99892.54
2022-12-08T08:58:58.178Z,99891.42
2022-12-08T09:01:27.414Z,99892.39
2022-12-08T09:03:55.144Z,99892.91
2022-12-08T09:06:22.426Z,99893.18
2022-12-08T09:08:50.050Z,99893.45
2022-12-08T09:11:18.665Z,99892.08
2022-12-08T09:13:48.843Z,99898.23
2022-12-08T09:16:15.595Z,99899.87
2022-12-08T09:18:42.065Z,99896.84
2022-12-08T09:21:13.190Z,99897.27
2022-12-08T09:23:39.994Z,99899.40
2022-12-08T09:26:06.935Z,99900.38
2022-12-08T09:28:33.554Z,99901.48
2022-12-08T09:31:00.194Z,99899.77
2022-12-08T09:33:26.703Z,99895.48
2022-12-08T09:35:53.471Z,99901.19
2022-12-08T09:38:20.024Z,99902.88
2022-12-08T09:40:52.492Z,99908.02
2022-12-08T09:44:04.506Z,99910.16
2022-12-08T09:46:34.282Z,99907.23
2022-12-08T09:49:02.603Z,99907.69
2022-12-08T09:51:38.534Z,99907.84
2022-12-08T09:54:17.359Z,99903.25
2022-12-08T09:56:43.960Z,99895.36
2022-12-08T09:59:22.396Z,99889.92
2022-12-08T10:01:49.125Z,99886.46
2022-12-08T10:04:34.945Z,99881.23
2022-12-08T10:07:27.425Z,99879.46
2022-12-08T10:10:18.901Z,99879.05
2022-12-08T10:13:06.690Z,99880.58
2022-12-08T10:15:41.613Z,99876.23
2022-12-08T10:18:23.057Z,99872.79
2022-12-08T10:20:51.161Z,99875.49
2022-12-08T10:23:33.199Z,99878.20
2022-12-08T10:26:06.508Z,99876.66
2022-12-08T10:28:37.678Z,99871.43
2022-12-08T10:31:15.155Z,99875.08
2022-12-08T10:33:41.573Z,99871.85
2022-12-08T10:36:11.166Z,99881.79
2022-12-08T10:38:39.634Z,99881.81
2022-12-08T10:41:08.998Z,99875.38
2022-12-08T10:43:38.444Z,99876.63
2022-12-08T10:46:13.173Z,99876.54
2022-12-08T10:49:03.066Z,99872.27
2022-12-08T10:51:35.179Z,99871.09
2022-12-08T10:54:01.913Z,99864.19
2022-12-08T10:56:30.451Z,99862.52
2022-12-08T10:59:17.279Z,99862.88
2022-12-08T11:01:51.440Z,99859.93
2022-12-08T11:04:36.479Z,99859.55
2022-12-08T11:07:06.040Z,99858.98
2022-12-08T11:09:37.682Z,99861.01
2022-12-08T11:12:15.785Z,99862.48
2022-12-08T11:14:42.097Z,99856.32
2022-12-08T11:17:13.005Z,99852.90
2022-12-08T11:19:41.904Z,99855.81
2022-12-08T11:22:32.471Z,99859.05
2022-12-08T11:25:20.833Z,99859.11
2022-12-08T11:27:53.594Z,99860.81
2022-12-08T11:30:27.270Z,99863.63
2022-12-08T11:33:03.379Z,99863.83
2022-12-08T11:35:37.470Z,99863.88
2022-12-08T11:38:24.597Z,99866.36
2022-12-08T11:40:55.836Z,99866.04
2022-12-08T11:43:34.902Z,99864.50
2022-12-08T11:46:14.068Z,99857.84
2022-12-08T11:49:06.745Z,99856.79
2022-12-08T11:51:38.530Z,99858.14
2022-12-08T11:54:33.664Z,99862.11
2022-12-08T11:57:03.649Z,99853.07
2022-12-08T11:59:34.691Z,99860.64
2022-12-08T12:02:03.831Z,99858.67
2022-12-08T12:04:52.623Z,99856.64
2022-12-08T12:07:30.970Z,99856.14
2022-12-08T12:10:18.256Z,99857.30
2022-12-08T12:13:02.596Z,99855.88
2022-12-08T12:15:50.786Z,99853.81
2022-12-08T12:18:47.685Z,99855.17
2022-12-08T12:21:20.187Z,99855.50
2022-12-08T12:23:53.682Z,99855.92
2022-12-08T12:26:26.239Z,99851.77
2022-12-08T12:28:57.796Z,99857.59
2022-12-08T12:31:29.516Z,99856.65
2022-12-08T12:34:08.517Z,99859.30
2022-12-08T12:36:55.488Z,99858.14
2022-12-08T12:39:31.869Z,99853.36
2022-12-08T12:42:01.366Z,99856.57
2022-12-08T12:44:27.709Z,99853.26
2022-12-08T12:46:58.720Z,99864.43
2022-12-08T12:49:40.595Z,99856.36
2022-12-08T12:52:09.839Z,99854.94
2022-12-08T12:54:36.343Z,99855.95
2022-12-08T12:57:05.576Z,99855.25
2022-12-08T12:59:34.951Z,99855.00
2022-12-08T13:02:02.595Z,99854.95
2022-12-08T13:04:37.414Z,99854.55
2022-12-08T13:07:05.011Z,99861.17
2022-12-08T13:09:39.657Z,99861.45
2022-12-08T13:12:12.164Z,99861.13
2022-12-08T13:14:47.488Z,99857.48
2022-12-08T13:17:27.404Z,99859.48
2022-12-08T13:19:57.699Z,99858.09
2022-12-08T13:23:21.501Z,99851.69
2022-12-08T13:25:51.187Z,99858.45
2022-12-08T13:28:24.453Z,99853.20
2022-12-08T13:31:02.076Z,99855.64
2022-12-08T13:33:32.418Z,99854.77
2022-12-08T13:36:31.140Z,99855.60
2022-12-08T13:38:59.069Z,99853.27
2022-12-08T13:41:43.244Z,99853.45
2022-12-08T13:58:42.161Z,99866.45
2022-12-08T14:01:23.394Z,99872.15
2022-12-08T14:04:31.062Z,99872.18
2022-12-08T14:06:45.921Z,99873.14
2022-12-08T14:09:16.384Z,99874.83
2022-12-08T14:11:47.877Z,99875.20
2022-12-08T14:14:46.026Z,99874.05
2022-12-08T14:17:14.041Z,99877.31
2022-12-08T14:19:52.157Z,99878.27
2022-12-08T14:22:18.920Z,99882.15
2022-12-08T14:24:51.343Z,99884.30
2022-12-08T14:27:26.860Z,99881.87
2022-12-08T14:29:57.010Z,99882.27
2022-12-08T14:32:59.848Z,99883.20
2022-12-08T14:35:34.987Z,99886.34
2022-12-08T14:38:12.228Z,99886.72
2022-12-08T14:40:44.327Z,99883.42
2022-12-08T14:43:10.766Z,99887.51
2022-12-08T14:45:43.002Z,99887.73
2022-12-08T14:48:30.819Z,99891.06
2022-12-08T14:51:03.347Z,99888.10
2022-12-08T14:53:53.006Z,99889.59
2022-12-08T14:56:22.471Z,99890.35
2022-12-08T14:58:51.227Z,99892.94
2022-12-08T15:01:23.450Z,99893.92
2022-12-08T15:03:51.567Z,99899.28
2022-12-08T15:06:21.168Z,99898.20
2022-12-08T15:08:58.682Z,99897.68
2022-12-08T15:11:25.027Z,99896.62
2022-12-08T15:13:54.418Z,99896.55
2022-12-08T15:16:28.772Z,99895.71
2022-12-08T15:19:21.417Z,99898.68
2022-12-08T15:21:47.895Z,99896.58
2022-12-08T15:24:15.481Z,99896.50
2022-12-08T15:26:47.144Z,99900.10
2022-12-08T15:29:22.912Z,99901.73
2022-12-08T15:31:52.268Z,99904.33
2022-12-08T15:34:20.189Z,99904.59
2022-12-08T15:36:47.593Z,99904.61
2022-12-08T15:39:33.615Z,99904.08
2022-12-08T15:42:01.440Z,99907.10
2022-12-08T15:44:29.158Z,99905.95
2022-12-08T15:46:56.017Z,99905.75
2022-12-08T15:49:23.903Z,99908.02
2022-12-08T15:51:57.400Z,99910.33
2022-12-08T15:54:31.373Z,99914.00
2022-12-08T15:59:45.068Z,99916.92
2022-12-08T16:02:16.709Z,99917.33
2022-12-08T16:05:33.409Z,99916.14
2022-12-08T16:07:37.906Z,99920.41
2022-12-08T16:10:06.661Z,99927.51
2022-12-08T16:16:00.674Z,99925.34
2022-12-08T16:18:34.466Z,99928.30
2022-12-08T16:21:41.753Z,99931.22
2022-12-08T16:23:48.266Z,99929.44
2022-12-08T16:26:54.540Z,99929.59
2022-12-08T16:29:08.102Z,99929.48
2022-12-08T16:31:35.244Z,99929.85
2022-12-08T16:34:01.865Z,99932.59
2022-12-08T16:36:28.288Z,99931.23
2022-12-08T16:38:54.667Z,99930.85
2022-12-08T16:41:39.931Z,99936.98
2022-12-08T16:44:06.422Z,99937.02
2022-12-08T16:46:33.247Z,99937.63
2022-12-08T16:48:59.704Z,99936.66
2022-12-08T16:51:27.318Z,99938.52
2022-12-08T16:53:54.115Z,99939.92
2022-12-08T16:56:22.264Z,99938.17
2022-12-08T16:58:49.878Z,99941.64
2022-12-08T17:01:18.333Z,99946.06
2022-12-08T17:04:01.342Z,99950.60
2022-12-08T17:06:32.629Z,99956.77
2022-12-08T17:08:59.651Z,99957.61
2022-12-08T17:11:28.389Z,99956.02
2022-12-08T17:13:54.844Z,99952.68
2022-12-08T17:16:21.878Z,99954.91
2022-12-08T17:18:48.646Z,99948.27
2022-12-08T17:21:17.446Z,99951.23
2022-12-08T17:23:44.270Z,99949.02
2022-12-08T17:26:10.975Z,99948.73
2022-12-08T17:28:59.328Z,99947.69
2022-12-08T17:31:29.415Z,99941.36
2022-12-08T17:33:59.514Z,99945.88
2022-12-08T17:36:25.989Z,99946.06
2022-12-08T17:38:52.536Z,99948.77
2022-12-08T17:41:18.968Z,99949.61
2022-12-08T17:43:45.392Z,99957.25
2022-12-08T17:46:17.037Z,99958.56
2022-12-08T17:48:43.504Z,99958.80
2022-12-08T17:51:10.490Z,99960.30
2022-12-08T17:53:37.793Z,99959.82
2022-12-08T17:56:04.403Z,99963.07
2022-12-08T17:58:31.270Z,99967.14
2022-12-08T18:00:57.695Z,99968.73
2022-12-08T18:03:24.114Z,99964.74
2022-12-08T18:05:51.033Z,99965.67
2022-12-08T18:08:17.519Z,99961.58
2022-12-08T18:10:44.133Z,99960.48
2022-12-08T18:13:10.580Z,99959.58
2022-12-08T18:15:39.309Z,99956.48
2022-12-08T18:18:05.999Z,99953.98
2022-12-08T18:20:32.476Z,99955.45
2022-12-08T18:22:58.959Z,99953.40
2022-12-08T18:25:25.541Z,99954.98
2022-12-08T18:27:51.949Z,99954.33
2022-12-08T18:30:18.673Z,99956.15
2022-12-08T18:32:45.956Z,99955.59
2022-12-08T18:35:13.350Z,99956.66
2022-12-08T18:37:39.952Z,99957.45
2022-12-08T18:40:07.201Z,99957.89
2022-12-08T18:42:33.860Z,99962.46
2022-12-08T18:45:04.434Z,99960.21
2022-12-08T18:47:36.267Z,99959.50
2022-12-08T18:50:04.585Z,99959.08
2022-12-08T18:52:32.628Z,99962.11
2022-12-08T18:55:07.684Z,99961.77
2022-12-08T18:57:37.543Z,99964.70
2022-12-08T19:00:06.143Z,99964.36
2022-12-08T19:02:34.052Z,99966.76
2022-12-08T19:05:01.234Z,99964.64
2022-12-08T19:07:27.624Z,99965.39
2022-12-08T19:09:54.556Z,99968.41
2022-12-08T19:12:20.948Z,99970.66
2022-12-08T19:14:47.438Z,99978.54
2022-12-08T19:17:14.014Z,99980.65
2022-12-08T19:19:40.420Z,99980.20
2022-12-08T19:22:06.874Z,99980.02
2022-12-08T19:24:34.818Z,99976.77
2022-12-08T19:27:01.253Z,99976.39
2022-12-08T19:29:27.641Z,99981.84
2022-12-08T19:31:54.367Z,99987.12
2022-12-08T19:34:21.172Z,99991.46
2022-12-08T19:36:47.823Z,99988.86
2022-12-08T19:39:38.863Z,99990.40
2022-12-08T19:42:38.903Z,99988.70
2022-12-08T19:45:12.115Z,99986.77
2022-12-08T19:47:39.774Z,99988.77
2022-12-08T19:50:27.124Z,99992.67
2022-12-08T19:52:54.406Z,99991.52
2022-12-08T19:55:21.064Z,99991.20
2022-12-08T19:57:47.631Z,99990.61
2022-12-08T20:00:14.823Z,99991.58
2022-12-08T20:02:42.170Z,99991.76
2022-12-08T20:05:13.756Z,99994.09
2022-12-08T20:07:40.656Z,99992.23
2022-12-08T20:10:15.578Z,99995.90
2022-12-08T20:12:42.080Z,99997.55
2022-12-08T20:15:10.160Z,100001.03
2022-12-08T20:17:37.876Z,100004.33
2022-12-08T20:20:07.573Z,100004.79
2022-12-08T20:22:34.707Z,100007.80
2022-12-08T20:25:01.310Z,100004.45
2022-12-08T20:27:29.111Z,100005.42
2022-12-08T20:29:55.622Z,100005.89
2022-12-08T20:32:22.123Z,100000.99
2022-12-08T20:34:48.534Z,100008.07
2022-12-08T20:37:14.999Z,100006.10
2022-12-08T20:39:41.434Z,100007.66
2022-12-08T20:42:12.843Z,100006.33
2022-12-08T20:44:43.397Z,100008.62
2022-12-08T20:47:11.148Z,100008.90
2022-12-08T20:49:37.860Z,100008.77
2022-12-08T20:52:04.841Z,100009.75
2022-12-08T20:54:31.364Z,100011.97
2022-12-08T20:56:57.848Z,100015.62
2022-12-08T20:59:26.352Z,100020.31
2022-12-08T21:01:54.007Z,100019.90
2022-12-08T21:04:21.513Z,100019.60
2022-12-08T21:06:49.045Z,100020.45
2022-12-08T21:09:15.842Z,100020.31
2022-12-08T21:11:42.479Z,100020.24
2022-12-08T21:14:08.897Z,100021.60
2022-12-08T21:16:36.046Z,100014.77
2022-12-08T21:19:02.683Z,100019.08
2022-12-08T21:21:29.370Z,100019.96
2022-12-08T21:23:55.893Z,100023.08
2022-12-08T21:26:26.121Z,100024.72
2022-12-08T21:28:57.891Z,100027.55
2022-12-08T21:31:26.628Z,100027.40
2022-12-08T21:33:55.122Z,100028.81
2022-12-08T21:36:21.775Z,100028.75
2022-12-08T21:38:48.997Z,100028.17
2022-12-08T21:41:39.068Z,100031.52
2022-12-08T21:44:07.338Z,100031.44
2022-12-08T21:46:34.150Z,100027.13
2022-12-08T21:49:01.212Z,100027.33
2022-12-08T21:51:28.069Z,100021.95
2022-12-08T21:53:54.822Z,100020.56
2022-12-08T21:56:21.691Z,100020.86
2022-12-08T21:58:48.256Z,100024.30
2022-12-08T22:01:14.964Z,100023.37
2022-12-08T22:03:41.962Z,100026.42
2022-12-08T22:06:11.258Z,100031.05
2022-12-08T22:08:38.039Z,100032.01
2022-12-08T22:11:05.801Z,100032.94
2022-12-08T22:13:38.389Z,100031.25
2022-12-08T22:16:07.602Z,100027.55
2022-12-08T22:18:34.763Z,100024.70
2022-12-08T22:21:02.570Z,100018.90
2022-12-08T22:23:29.280Z,100025.86
2022-12-08T22:25:58.485Z,100023.41
2022-12-08T22:28:33.095Z,100023.98
2022-12-08T22:31:00.378Z,100018.73
2022-12-08T22:33:29.769Z,100019.60
2022-12-08T22:36:08.089Z,100016.52
2022-12-08T22:38:36.446Z,100016.18
2022-12-08T22:41:05.217Z,100015.02
2022-12-08T22:43:33.185Z,100013.77
2022-12-08T22:46:00.004Z,100013.45
2022-12-08T22:48:26.494Z,100012.45
2022-12-08T22:50:59.726Z,100013.23
2022-12-08T22:53:26.387Z,100016.02
2022-12-08T22:55:52.908Z,100015.72
2022-12-08T22:58:19.910Z,100017.52
2022-12-08T23:00:46.636Z,100021.78
2022-12-08T23:03:13.123Z,100018.75
2022-12-08T23:05:39.973Z,100023.34
2022-12-08T23:08:08.346Z,100027.84
2022-12-08T23:10:35.868Z,100024.27
2022-12-08T23:13:04.224Z,100025.17
2022-12-08T23:15:31.773Z,100025.48
2022-12-08T23:17:58.211Z,100025.77
2022-12-08T23:20:24.909Z,100025.52
2022-12-08T23:22:51.702Z,100024.82
2022-12-08T23:25:18.570Z,100022.95
2022-12-08T23:27:46.198Z,100018.57
2022-12-08T23:30:13.716Z,100017.24
2022-12-08T23:32:40.471Z,100021.16
2022-12-08T23:35:07.986Z,100022.52
2022-12-08T23:37:34.912Z,100020.39
2022-12-08T23:40:01.544Z,100023.38
2022-12-08T23:42:30.447Z,100023.06
2022-12-08T23:44:57.059Z,100018.89
2022-12-08T23:47:23.677Z,100019.34
2022-12-08T23:49:50.381Z,100015.38
2022-12-08T23:52:17.047Z,100013.85
2022-12-08T23:54:44.861Z,100011.22
2022-12-08T23:57:11.676Z,100007.47
2022-12-08T23:59:38.213Z,100013.44
